Time;durP1;ratioP1;P1;durP2;ratioP2;P2;SDS_P1;SDS_P2;PMS_P1;PMS_P2;Temp;Humidity;BMP_temperature;BMP_pressure;BME280_temperature;BME280_humidity;BME280_pressure;Samples;Min_cycle;Max_cycle;Signal;HPM_P1;HPM_P2
2022/04/01 00:00:46;;;;;;;11.03;9.93;;;;;;;3.92;100.00;97199.09;4877655;29;20683;-79
2022/04/01 00:03:13;;;;;;;10.83;9.93;;;;;;;3.90;100.00;97203.03;4871162;29;20719;-79
2022/04/01 00:05:40;;;;;;;10.90;9.90;;;;;;;3.92;100.00;97201.72;4879146;29;20367;-79
2022/04/01 00:08:08;;;;;;;10.90;10.00;;;;;;;3.89;100.00;97212.00;4880633;29;20351;-79
2022/04/01 00:10:37;;;;;;;10.93;10.00;;;;;;;3.84;100.00;97206.59;4882955;29;20235;-80
2022/04/01 00:13:04;;;;;;;11.80;10.80;;;;;;;3.80;100.00;97194.88;4878740;29;20266;-79
2022/04/01 00:15:31;;;;;;;11.30;10.30;;;;;;;3.82;100.00;97198.09;4891225;29;20259;-80
2022/04/01 00:18:00;;;;;;;12.07;10.97;;;;;;;3.75;100.00;97203.53;4897383;29;20294;-79
2022/04/01 00:20:27;;;;;;;11.70;10.70;;;;;;;3.84;100.00;97198.66;4896748;29;20267;-82
2022/04/01 00:22:55;;;;;;;11.60;10.60;;;;;;;3.86;100.00;97204.53;4887263;29;20231;-80
2022/04/01 00:25:22;;;;;;;12.10;11.00;;;;;;;3.88;100.00;97200.59;4892662;29;20579;-80
2022/04/01 00:27:50;;;;;;;11.83;10.83;;;;;;;3.81;100.00;97189.34;4886859;29;20763;-79
2022/04/01 00:30:17;;;;;;;12.00;10.90;;;;;;;3.70;100.00;97190.19;4879880;29;20247;-79
2022/04/01 00:32:44;;;;;;;11.73;10.73;;;;;;;3.71;100.00;97193.63;4881695;29;20239;-79
2022/04/01 00:35:11;;;;;;;12.50;11.40;;;;;;;3.66;100.00;97185.59;4880240;29;20220;-79
2022/04/01 00:37:38;;;;;;;12.93;11.80;;;;;;;3.72;100.00;97190.75;4873608;29;21042;-79
2022/04/01 00:40:06;;;;;;;15.73;14.43;;;;;;;3.65;100.00;97191.91;4881044;29;20312;-79
2022/04/01 00:42:34;;;;;;;11.57;10.57;;;;;;;3.77;100.00;97190.06;4873462;29;20704;-79
2022/04/01 00:45:00;;;;;;;11.90;10.80;;;;;;;3.66;100.00;97186.41;4879589;29;20243;-79
2022/04/01 00:47:27;;;;;;;11.80;10.80;;;;;;;3.64;100.00;97190.34;4878271;29;20240;-79
2022/04/01 00:49:55;;;;;;;12.40;11.20;;;;;;;3.61;100.00;97188.13;4881564;29;20235;-79
2022/04/01 00:52:22;;;;;;;12.90;11.70;;;;;;;3.72;100.00;97188.13;4873272;29;20314;-79
2022/04/01 00:54:52;;;;;;;13.03;11.73;;;;;;;3.61;100.00;97191.59;4880260;29;20318;-79
2022/04/01 00:57:19;;;;;;;12.80;11.60;;;;;;;3.60;100.00;97197.91;4885392;29;20285;-79
2022/04/01 00:59:48;;;;;;;12.67;11.47;;;;;;;3.63;100.00;97186.88;4883171;29;20674;-79
2022/04/01 01:02:16;;;;;;;13.00;11.80;;;;;;;3.59;100.00;97185.75;4878095;29;20768;-79
2022/04/01 01:04:45;;;;;;;12.67;11.47;;;;;;;3.58;100.00;97180.66;4874144;29;20319;-78
2022/04/01 01:07:13;;;;;;;13.47;12.17;;;;;;;3.63;100.00;97188.72;4881242;29;20647;-78
2022/04/01 01:09:42;;;;;;;14.23;12.83;;;;;;;3.53;100.00;97178.72;4881989;29;20307;-78
2022/04/01 01:12:10;;;;;;;12.77;11.67;;;;;;;3.57;100.00;97169.28;4871366;29;20227;-79
2022/04/01 01:14:38;;;;;;;13.70;12.43;;;;;;;3.53;100.00;97176.88;4881180;29;20243;-79
2022/04/01 01:17:07;;;;;;;14.00;12.70;;;;;;;3.40;100.00;97186.94;4876453;29;20235;-78
2022/04/01 01:19:34;;;;;;;14.23;12.83;;;;;;;3.46;100.00;97191.28;4874842;29;20244;-80
2022/04/01 01:22:01;;;;;;;14.00;12.73;;;;;;;3.32;100.00;97196.00;4880352;29;20723;-75
2022/04/01 01:24:31;;;;;;;14.07;12.77;;;;;;;3.31;100.00;97204.19;4851482;29;20240;-79
2022/04/01 01:26:59;;;;;;;14.83;13.43;;;;;;;3.42;100.00;97206.81;4878970;29;20235;-79
2022/04/01 01:29:30;;;;;;;14.67;13.30;;;;;;;3.35;100.00;97205.34;4880799;29;20291;-79
2022/04/01 01:32:00;;;;;;;15.90;14.30;;;;;;;3.28;100.00;97209.94;4879252;29;20263;-79
2022/04/01 01:34:28;;;;;;;14.73;13.33;;;;;;;3.40;100.00;97206.25;4879590;29;20663;-79
2022/04/01 01:36:56;;;;;;;14.27;12.90;;;;;;;3.36;100.00;97199.78;4869229;29;20685;-79
2022/04/01 01:39:23;;;;;;;14.30;13.00;;;;;;;3.34;100.00;97201.88;4872781;29;20267;-79
2022/04/01 01:41:53;;;;;;;15.00;13.50;;;;;;;3.31;100.00;97199.69;4878622;29;20239;-78
2022/04/01 01:44:22;;;;;;;14.60;13.20;;;;;;;3.39;100.00;97198.53;4863707;29;20243;-78
2022/04/01 01:46:50;;;;;;;14.47;13.07;;;;;;;3.33;100.00;97194.16;4872468;29;20236;-78
2022/04/01 01:49:20;;;;;;;14.90;13.53;;;;;;;3.39;100.00;97195.91;4872494;29;20266;-78
2022/04/01 01:54:45;;;;;;;15.03;13.63;;;;;;;3.21;100.00;97196.84;4880868;29;20232;-78
2022/04/01 01:57:15;;;;;;;16.70;15.10;;;;;;;3.15;100.00;97197.75;4878497;29;20247;-78
2022/04/01 01:59:43;;;;;;;16.73;15.07;;;;;;;3.21;100.00;97194.19;4876039;29;20696;-79
2022/04/01 02:02:10;;;;;;;17.13;15.50;;;;;;;3.28;100.00;97194.06;4862422;29;20951;-80
2022/04/01 02:04:39;;;;;;;16.93;15.33;;;;;;;3.33;100.00;97194.97;4874148;29;20263;-79
2022/04/01 02:07:07;;;;;;;15.80;14.33;;;;;;;3.29;100.00;97185.91;4861278;29;20236;-79
2022/04/01 02:09:34;;;;;;;17.37;15.77;;;;;;;3.26;100.00;97182.91;4884095;29;20314;-80
2022/04/01 02:12:01;;;;;;;17.47;15.87;;;;;;;3.24;100.00;97192.91;4880169;29;20243;-78
2022/04/01 02:14:30;;;;;;;17.47;15.83;;;;;;;3.23;100.00;97178.06;4863684;29;20252;-79
2022/04/01 02:16:59;;;;;;;16.10;14.60;;;;;;;3.27;100.00;97189.78;4864051;29;20235;-80
2022/04/01 02:19:26;;;;;;;14.97;13.57;;;;;;;3.35;100.00;97184.97;4868997;29;20778;-79
2022/04/01 02:21:54;;;;;;;14.10;12.80;;;;;;;3.17;100.00;97192.25;4875390;29;20599;-79
2022/04/01 02:24:23;;;;;;;14.93;13.53;;;;;;;3.16;100.00;97185.34;4875125;29;20813;-80
2022/04/01 02:26:51;;;;;;;15.03;13.63;;;;;;;3.20;100.00;97191.78;4878654;29;20238;-79
2022/04/01 02:29:20;;;;;;;15.07;13.77;;;;;;;3.13;100.00;97191.88;4885074;29;20742;-79
2022/04/01 02:32:06;;;;;;;15.10;13.70;;;;;;;3.11;100.00;97193.97;4878462;29;20587;-79
2022/04/01 02:34:52;;;;;;;15.17;13.77;;;;;;;3.16;100.00;97199.38;4879597;29;20299;-78
2022/04/01 02:37:20;;;;;;;16.23;14.67;;;;;;;3.08;100.00;97195.22;4867031;29;20650;-78
2022/04/01 02:39:48;;;;;;;15.87;14.37;;;;;;;3.00;100.00;97190.28;4875505;29;20303;-79
2022/04/01 02:42:16;;;;;;;16.93;15.33;;;;;;;3.05;100.00;97185.13;4866705;29;20270;-79
2022/04/01 02:44:45;;;;;;;16.77;15.23;;;;;;;3.18;100.00;97186.72;4880804;29;20234;-79
2022/04/01 02:47:12;;;;;;;17.60;16.00;;;;;;;3.20;100.00;97181.19;4886310;29;20583;-79
2022/04/01 02:49:40;;;;;;;17.37;15.67;;;;;;;3.22;100.00;97185.19;4876149;29;20235;-79
2022/04/01 02:52:07;;;;;;;18.53;16.63;;;;;;;3.08;100.00;97171.41;4869756;29;20385;-79
2022/04/01 02:54:37;;;;;;;17.10;15.50;;;;;;;3.25;100.00;97174.19;4870511;29;20275;-79
2022/04/01 02:57:05;;;;;;;16.80;15.10;;;;;;;3.24;100.00;97174.41;4876072;29;20239;-79
2022/04/01 02:59:32;;;;;;;17.60;15.90;;;;;;;3.21;100.00;97172.22;4873647;29;20236;-80
2022/04/01 03:01:59;;;;;;;18.20;16.43;;;;;;;3.20;100.00;97171.41;4871673;29;20591;-80
2022/04/01 03:04:27;;;;;;;17.93;16.23;;;;;;;3.14;100.00;97167.03;4884983;29;20750;-79
2022/04/01 03:06:57;;;;;;;17.47;15.83;;;;;;;3.10;100.00;97165.91;4878001;29;20239;-79
2022/04/01 03:09:25;;;;;;;18.67;16.83;;;;;;;3.06;100.00;97178.78;4878725;29;20723;-80
2022/04/01 03:12:00;;;;;;;18.63;16.80;;;;;;;3.05;100.00;97181.66;4870672;29;20326;-79
2022/04/01 03:14:45;;;;;;;18.03;16.30;;;;;;;3.15;100.00;97171.31;4879368;29;20608;-79
2022/04/01 03:17:31;;;;;;;15.97;14.47;;;;;;;3.17;100.00;97163.16;4874675;29;20236;-79
2022/04/01 03:20:02;;;;;;;17.77;16.07;;;;;;;3.16;100.00;97170.28;4877752;29;20319;-79
2022/04/01 03:22:34;;;;;;;17.43;15.83;;;;;;;2.96;100.00;97170.63;4869872;29;20661;-79
2022/04/01 03:25:00;;;;;;;17.73;16.00;;;;;;;3.05;100.00;97182.47;4869927;29;20326;-79
2022/04/01 03:27:32;;;;;;;17.67;16.00;;;;;;;3.12;100.00;97166.50;4874573;29;20234;-79
2022/04/01 03:29:58;;;;;;;17.67;15.97;;;;;;;3.12;100.00;97166.50;4879893;29;20356;-79
2022/04/01 03:32:26;;;;;;;18.57;16.77;;;;;;;2.95;100.00;97174.31;4877105;29;20645;-79
2022/04/01 03:34:53;;;;;;;17.50;15.80;;;;;;;2.98;100.00;97181.78;4877518;29;20251;-79
2022/04/01 03:37:20;;;;;;;17.80;16.07;;;;;;;3.04;100.00;97180.03;4877137;29;20573;-79
2022/04/01 03:39:47;;;;;;;17.87;16.07;;;;;;;2.99;100.00;97170.16;4877197;29;20239;-78
2022/04/01 03:42:14;;;;;;;18.00;16.30;;;;;;;3.05;100.00;97169.25;4851090;29;20242;-79
2022/04/01 03:44:41;;;;;;;17.37;15.67;;;;;;;3.24;100.00;97177.03;4877387;29;20248;-79
2022/04/01 03:47:30;;;;;;;16.83;15.23;;;;;;;3.13;100.00;97183.94;4878589;29;20250;-78
2022/04/01 03:50:00;;;;;;;17.23;15.53;;;;;;;3.02;100.00;97180.28;4875195;29;20325;-77
2022/04/01 03:52:31;;;;;;;17.97;16.17;;;;;;;2.95;100.00;97174.31;4877035;29;20231;-79
2022/04/01 03:55:02;;;;;;;17.60;15.90;;;;;;;2.97;100.00;97180.19;4846820;29;20232;-78
2022/04/01 03:57:55;;;;;;;17.70;16.00;;;;;;;3.08;100.00;97173.25;4850003;29;20243;-79
2022/04/01 04:00:41;;;;;;;17.63;15.93;;;;;;;2.89;100.00;97179.72;4872669;29;20246;-79
2022/04/01 04:03:09;;;;;;;17.73;16.00;;;;;;;2.96;100.00;97175.09;4875429;29;20239;-79
2022/04/01 04:05:38;;;;;;;16.47;14.77;;;;;;;2.98;100.00;97187.09;4872214;29;20712;-77
2022/04/01 04:08:07;;;;;;;17.33;15.60;;;;;;;3.05;100.00;97174.53;4868650;29;20722;-78
2022/04/01 04:10:35;;;;;;;16.93;15.33;;;;;;;2.96;100.00;97175.09;4873898;29;20232;-78
2022/04/01 04:13:25;;;;;;;16.37;14.77;;;;;;;3.07;100.00;97176.97;4877690;29;20227;-80
2022/04/01 04:16:09;;;;;;;16.27;14.67;;;;;;;3.06;100.00;97185.91;4876924;29;20678;-79
2022/04/01 04:18:43;;;;;;;16.57;14.97;;;;;;;3.06;100.00;97183.28;4866576;29;20417;-79
2022/04/01 04:21:25;;;;;;;16.33;14.73;;;;;;;2.90;100.00;97179.47;4869570;29;20263;-80
2022/04/01 04:24:01;;;;;;;16.57;15.07;;;;;;;2.88;100.00;97183.41;4876944;29;20239;-79
2022/04/01 04:26:35;;;;;;;15.63;14.03;;;;;;;3.02;100.00;97182.94;4858825;29;20232;-79
2022/04/01 04:29:14;;;;;;;15.50;13.90;;;;;;;3.04;100.00;97191.44;4886818;29;20716;-79
2022/04/01 04:32:03;;;;;;;15.47;13.97;;;;;;;3.08;100.00;97197.06;4874109;29;20243;-79
2022/04/01 04:34:37;;;;;;;16.10;14.50;;;;;;;3.00;100.00;97198.22;4858189;29;20314;-79
2022/04/01 04:37:09;;;;;;;15.57;14.07;;;;;;;3.01;100.00;97201.69;4879244;29;20283;-80
2022/04/01 04:39:45;;;;;;;17.17;15.47;;;;;;;3.02;100.00;97198.00;4882583;29;20686;-79
2022/04/01 04:42:13;;;;;;;16.60;15.00;;;;;;;2.96;100.00;97193.63;4854695;29;20304;-79
2022/04/01 04:44:41;;;;;;;16.13;14.63;;;;;;;2.90;100.00;97194.53;4869080;29;20267;-79
2022/04/01 04:47:11;;;;;;;16.67;15.00;;;;;;;2.83;100.00;97202.59;4878174;29;20235;-79
2022/04/01 04:49:41;;;;;;;16.80;15.17;;;;;;;2.96;100.00;97210.31;4867377;29;20295;-79
2022/04/01 04:52:09;;;;;;;16.50;14.90;;;;;;;3.00;100.00;97208.81;4875142;29;20293;-80
2022/04/01 04:54:43;;;;;;;16.20;14.60;;;;;;;2.97;100.00;97211.09;4885353;29;20237;-79
2022/04/01 04:57:20;;;;;;;16.90;15.30;;;;;;;3.00;100.00;97218.56;4882234;29;20711;-80
2022/04/01 04:59:48;;;;;;;17.07;15.33;;;;;;;3.00;100.00;97215.94;4884735;29;20770;-79
2022/04/01 05:02:49;;;;;;;16.77;15.27;;;;;;;2.93;100.00;97225.84;4880696;29;20238;-79
2022/04/01 05:05:25;;;;;;;16.47;14.80;;;;;;;2.94;100.00;97230.88;4864645;29;20257;-79
2022/04/01 05:08:52;;;;;;;16.13;14.57;;;;;;;2.89;100.00;97225.47;4870110;29;20247;-79
2022/04/01 05:11:46;;;;;;;15.40;13.73;;;;;;;3.07;100.00;97233.31;4872207;29;20663;-79
2022/04/01 05:14:32;;;;;;;15.33;13.83;;;;;;;3.05;100.00;97237.22;4871507;29;20239;-79
2022/04/01 05:17:03;;;;;;;15.23;13.73;;;;;;;3.18;100.00;97225.59;4879820;29;20242;-79
2022/04/01 05:19:32;;;;;;;15.10;13.63;;;;;;;3.09;100.00;97230.44;4879530;29;20243;-79
2022/04/01 05:22:07;;;;;;;14.73;13.23;;;;;;;3.13;100.00;97221.00;4861143;29;20281;-79
2022/04/01 05:24:51;;;;;;;14.20;12.80;;;;;;;3.18;100.00;97223.75;4870891;29;20240;-79
2022/04/01 05:27:24;;;;;;;14.60;13.20;;;;;;;3.06;100.00;97228.25;4870507;29;20726;-79
2022/04/01 05:30:14;;;;;;;15.50;13.97;;;;;;;3.01;100.00;97228.13;4871524;29;20269;-79
2022/04/01 05:33:08;;;;;;;14.70;13.30;;;;;;;3.08;100.00;97234.91;4874016;29;20248;-80
2022/04/01 05:35:40;;;;;;;14.53;13.13;;;;;;;3.08;100.00;97239.38;4864808;29;20692;-79
2022/04/01 05:38:09;;;;;;;14.80;13.30;;;;;;;3.05;100.00;97239.84;4878665;29;20691;-79
2022/04/01 05:40:38;;;;;;;15.03;13.53;;;;;;;3.10;100.00;97242.63;4875986;29;20248;-79
2022/04/01 05:43:07;;;;;;;14.23;12.87;;;;;;;3.08;100.00;97242.84;4873493;29;20240;-79
2022/04/01 05:45:34;;;;;;;14.40;13.03;;;;;;;3.19;100.00;97248.38;4876632;29;20352;-79
2022/04/01 05:48:11;;;;;;;14.40;13.00;;;;;;;3.18;100.00;97247.56;4857598;29;20704;-79
2022/04/01 05:50:39;;;;;;;14.90;13.40;;;;;;;3.24;100.00;97257.22;4874932;29;20236;-79
2022/04/01 05:53:08;;;;;;;14.27;12.87;;;;;;;3.26;100.00;97251.72;4873058;29;20315;-79
2022/04/01 05:55:44;;;;;;;14.30;12.90;;;;;;;3.34;100.00;97248.72;4862003;29;20239;-79
2022/04/01 05:58:11;;;;;;;13.43;12.13;;;;;;;3.33;100.00;97250.56;4867537;29;20243;-79
2022/04/01 06:00:55;;;;;;;13.27;11.90;;;;;;;3.31;100.00;97257.13;4873850;29;20239;-79
2022/04/01 06:03:43;;;;;;;13.17;11.87;;;;;;;3.27;100.00;97254.13;4861841;29;20244;-78
2022/04/01 06:06:20;;;;;;;12.93;11.63;;;;;;;3.32;100.00;97258.72;4854827;29;20319;-79
2022/04/01 06:09:11;;;;;;;12.70;11.50;;;;;;;3.45;100.00;97254.00;4884389;29;20231;-80
2022/04/01 06:12:23;;;;;;;13.30;12.00;;;;;;;3.48;100.00;97250.91;4860429;29;20235;-79
2022/04/01 06:15:16;;;;;;;12.90;11.50;;;;;;;3.54;100.00;97249.16;4879405;29;20254;-79
2022/04/01 06:18:27;;;;;;;11.70;10.50;;;;;;;3.48;100.00;97250.91;4883262;29;20249;-79
2022/04/01 06:21:00;;;;;;;12.47;11.27;;;;;;;3.46;100.00;97252.97;4878494;29;20228;-79
2022/04/01 06:23:42;;;;;;;11.83;10.57;;;;;;;3.58;100.00;97257.44;4871011;29;20267;-79
2022/04/01 06:26:12;;;;;;;13.00;11.70;;;;;;;3.48;100.00;97260.69;4877975;29;20235;-79
2022/04/01 06:28:50;;;;;;;12.53;11.33;;;;;;;3.50;100.00;97264.69;4860339;29;20240;-79
2022/04/01 06:31:22;;;;;;;13.10;11.80;;;;;;;3.42;100.00;97262.41;4876642;29;20366;-79
2022/04/01 06:34:08;;;;;;;12.30;11.10;;;;;;;3.53;100.00;97261.59;4860125;29;20232;-79
2022/04/01 06:37:04;;;;;;;11.77;10.57;;;;;;;3.57;100.00;97269.88;4866887;29;20243;-78
2022/04/01 06:39:46;;;;;;;11.40;10.23;;;;;;;3.62;100.00;97261.25;4870442;29;20258;-78
2022/04/01 06:42:23;;;;;;;11.77;10.57;;;;;;;3.58;100.00;97270.69;4867821;29;20258;-78
2022/04/01 06:44:50;;;;;;;11.47;10.37;;;;;;;3.52;100.00;97262.63;4874156;29;20303;-78
2022/04/01 06:47:17;;;;;;;12.63;11.33;;;;;;;3.50;100.00;97266.53;4874364;29;20224;-78
2022/04/01 06:49:48;;;;;;;12.20;11.00;;;;;;;3.53;100.00;97263.44;4873298;29;20247;-78
2022/04/01 06:52:33;;;;;;;10.43;9.47;;;;;;;3.58;100.00;97273.34;4873513;29;20242;-78
2022/04/01 06:55:32;;;;;;;10.37;9.37;;;;;;;3.55;100.00;97278.03;4877020;29;20243;-77
2022/04/01 06:58:01;;;;;;;10.60;9.60;;;;;;;3.45;100.00;97280.47;4884529;29;20726;-75
2022/04/01 07:00:40;;;;;;;9.87;8.97;;;;;;;3.60;100.00;97271.25;4875779;29;20609;-78
2022/04/01 07:03:07;;;;;;;10.23;9.23;;;;;;;3.63;100.00;97282.19;4870490;29;20299;-77
2022/04/01 07:05:35;;;;;;;9.47;8.57;;;;;;;3.65;100.00;97274.00;4868248;29;20295;-78
2022/04/01 07:08:06;;;;;;;10.23;9.23;;;;;;;3.66;100.00;97283.56;4868256;29;20243;-78
2022/04/01 07:10:33;;;;;;;11.73;8.97;;;;;;;3.62;100.00;97288.53;4866849;29;20653;-77
2022/04/01 07:13:00;;;;;;;9.17;8.27;;;;;;;3.66;100.00;97283.56;4862674;29;20243;-77
2022/04/01 07:15:27;;;;;;;8.60;7.83;;;;;;;3.80;100.00;97285.72;4866508;29;20250;-77
2022/04/01 07:17:55;;;;;;;9.10;7.97;;;;;;;3.92;100.00;97283.03;4862310;29;20603;-77
2022/04/01 07:20:21;;;;;;;8.97;8.07;;;;;;;3.84;100.00;97291.38;4864400;29;20307;-77
2022/04/01 07:22:51;;;;;;;8.47;7.67;;;;;;;4.03;100.00;97282.22;4861493;29;20435;-77
2022/04/01 07:25:21;;;;;;;8.67;7.87;;;;;;;4.15;100.00;97283.00;4864055;29;20223;-78
2022/04/01 07:27:49;;;;;;;7.80;7.10;;;;;;;4.23;100.00;97287.13;4867715;29;20243;-77
2022/04/01 07:30:16;;;;;;;9.47;8.57;;;;;;;4.21;100.00;97287.34;4866961;29;20750;-76
2022/04/01 07:32:43;;;;;;;8.43;7.63;;;;;;;4.34;100.00;97286.25;4869722;29;20330;-78
2022/04/01 07:35:13;;;;;;;8.00;7.30;;;;;;;4.42;100.00;97280.59;4866079;29;20238;-77
2022/04/01 07:37:45;;;;;;;8.70;7.87;;;;;;;4.52;100.00;97291.41;4869410;29;20779;-77
2022/04/01 07:40:24;;;;;;;7.90;7.20;;;;;;;4.60;100.00;97277.75;4867890;29;20262;-77
2022/04/01 07:42:52;;;;;;;7.63;6.93;;;;;;;4.75;100.00;97279.88;4861252;29;20251;-77
2022/04/01 07:45:19;;;;;;;8.03;7.23;;;;;;;4.83;100.00;97282.13;4871851;29;20246;-77
2022/04/01 07:47:47;;;;;;;8.17;7.40;;;;;;;4.99;100.00;97284.00;4874545;29;20318;-76
2022/04/01 07:50:15;;;;;;;7.43;6.83;;;;;;;4.98;100.00;97285.03;4878189;29;20326;-77
2022/04/01 07:52:43;;;;;;;6.63;6.03;;;;;;;5.03;100.00;97285.13;4870483;29;20241;-77
2022/04/01 07:55:13;;;;;;;6.97;6.37;;;;;;;4.99;100.00;97284.00;4878099;29;20711;-77
2022/04/01 07:57:41;;;;;;;6.90;6.30;;;;;;;4.82;100.00;97283.97;4859355;29;20851;-77
2022/04/01 08:00:13;;;;;;;7.17;6.50;;;;;;;4.68;100.00;97284.50;4873482;29;20291;-77
2022/04/01 08:02:40;;;;;;;7.23;6.60;;;;;;;4.87;100.00;97296.50;4873672;29;20350;-77
2022/04/01 08:05:08;;;;;;;6.97;6.37;;;;;;;4.88;100.00;97295.47;4866416;29;20235;-77
2022/04/01 08:07:35;;;;;;;6.73;6.13;;;;;;;4.88;100.00;97306.91;4878106;29;20662;-78
2022/04/01 08:10:04;;;;;;;6.80;6.20;;;;;;;4.97;100.00;97299.34;4877463;29;20235;-77
2022/04/01 08:12:39;;;;;;;6.87;6.27;;;;;;;4.98;100.00;97297.50;4866204;29;20240;-78
2022/04/01 08:15:06;;;;;;;6.70;6.10;;;;;;;4.98;100.00;97300.97;4867075;29;20322;-77
2022/04/01 08:17:33;;;;;;;6.13;5.60;;;;;;;4.81;100.00;97302.75;4860234;29;20586;-78
2022/04/01 08:19:59;;;;;;;6.93;6.30;;;;;;;4.81;100.00;97306.22;4877628;29;20258;-78
2022/04/01 08:22:26;;;;;;;7.07;6.43;;;;;;;4.99;100.00;97310.53;4877068;29;20314;-78
2022/04/01 08:24:53;;;;;;;6.83;6.20;;;;;;;4.97;100.00;97312.59;4877735;29;20260;-77
2022/04/01 08:27:20;;;;;;;6.87;6.20;;;;;;;5.02;100.00;97318.00;4877397;29;20292;-77
2022/04/01 08:29:46;;;;;;;6.70;6.20;;;;;;;4.94;100.00;97318.41;4881208;29;20258;-77
2022/04/01 08:32:13;;;;;;;7.07;6.47;;;;;;;5.09;100.00;97321.28;4873564;29;20692;-77
2022/04/01 08:34:40;;;;;;;7.17;6.57;;;;;;;5.23;100.00;97319.94;4873838;29;20350;-77
2022/04/01 08:37:08;;;;;;;6.60;6.00;;;;;;;5.32;100.00;97321.13;4880789;29;20235;-77
2022/04/01 08:39:35;;;;;;;7.70;7.03;;;;;;;5.40;100.00;97325.25;4871432;29;20231;-76
2022/04/01 08:42:03;;;;;;;7.57;6.87;;;;;;;5.52;100.00;97327.81;4872320;29;20238;-77
2022/04/01 08:44:30;;;;;;;7.07;6.47;;;;;;;5.52;100.00;97323.31;4865590;29;20236;-77
2022/04/01 08:46:57;;;;;;;6.70;6.20;;;;;;;5.64;100.00;97331.19;4870057;29;20248;-77
2022/04/01 08:49:23;;;;;;;7.07;6.47;;;;;;;5.57;100.00;97333.19;4868066;29;20260;-77
2022/04/01 08:51:50;;;;;;;6.60;6.10;;;;;;;5.53;100.00;97338.22;4862056;29;20228;-77
2022/04/01 08:54:18;;;;;;;6.87;6.37;;;;;;;5.30;100.00;97325.91;4863043;29;20236;-79
2022/04/01 08:56:45;;;;;;;6.90;6.30;;;;;;;5.59;100.00;97337.25;4866486;29;20410;-78
2022/04/01 08:59:12;;;;;;;6.77;6.17;;;;;;;5.76;100.00;97339.88;4872181;29;20235;-77
2022/04/01 09:01:40;;;;;;;6.90;6.30;;;;;;;5.95;100.00;97329.78;4865318;29;20251;-77
2022/04/01 09:04:17;;;;;;;6.73;6.23;;;;;;;6.19;100.00;97341.81;4866140;29;20240;-77
2022/04/01 09:06:45;;;;;;;7.00;6.40;;;;;;;6.29;100.00;97343.81;4863080;29;20309;-77
2022/04/01 09:09:24;;;;;;;6.90;6.30;;;;;;;6.14;100.00;97341.75;4869278;29;20235;-76
2022/04/01 09:12:06;;;;;;;6.00;5.50;;;;;;;6.00;100.00;97340.50;4873386;29;20334;-77
2022/04/01 09:14:34;;;;;;;6.30;5.70;;;;;;;6.19;100.00;97342.63;4880683;29;20235;-77
2022/04/01 09:17:02;;;;;;;5.43;4.97;;;;;;;6.18;100.00;97345.50;4881257;29;20259;-76
2022/04/01 09:19:31;;;;;;;5.20;4.80;;;;;;;6.03;100.00;97347.97;4871705;29;20296;-77
2022/04/01 09:22:14;;;;;;;5.00;4.60;;;;;;;5.94;100.00;97347.59;4870020;29;20240;-77
2022/04/01 09:24:53;;;;;;;5.57;5.07;;;;;;;6.12;100.00;97351.81;4861706;29;20252;-77
2022/04/01 09:27:51;;;;;;;5.97;5.47;;;;;;;5.99;100.00;97358.28;4869870;29;20239;-77
2022/04/01 09:30:26;;;;;;;5.27;4.87;;;;;;;6.18;100.00;97354.31;4872640;29;20607;-77
2022/04/01 09:32:55;;;;;;;5.00;4.60;;;;;;;6.07;100.00;97359.72;4880803;29;20243;-77
2022/04/01 09:35:25;;;;;;;5.00;4.60;;;;;;;6.04;100.00;97358.38;4880150;29;20705;-77
2022/04/01 09:38:07;;;;;;;5.47;4.93;;;;;;;6.01;100.00;97363.38;4880341;29;20692;-77
2022/04/01 09:40:35;;;;;;;5.70;5.20;;;;;;;6.14;100.00;97368.34;4880122;29;20250;-77
2022/04/01 09:43:07;;;;;;;5.20;4.80;;;;;;;6.16;100.00;97369.69;4880158;29;20247;-77
2022/04/01 09:45:37;;;;;;;5.07;4.67;;;;;;;6.06;100.00;97358.94;4872635;29;20326;-77
2022/04/01 09:48:16;;;;;;;5.27;4.87;;;;;;;5.87;100.00;97370.09;4875580;29;20236;-77
2022/04/01 09:50:44;;;;;;;5.47;4.97;;;;;;;5.78;100.00;97361.69;4871898;29;20243;-77
2022/04/01 09:53:12;;;;;;;5.53;5.03;;;;;;;5.88;100.00;97358.41;4867102;29;20238;-77
2022/04/01 09:55:41;;;;;;;5.43;4.93;;;;;;;6.12;100.00;97371.22;4864562;29;20235;-77
2022/04/01 09:58:08;;;;;;;5.17;4.77;;;;;;;6.28;100.00;97369.59;4864395;29;20305;-77
2022/04/01 10:00:40;;;;;;;5.07;4.57;;;;;;;6.40;100.00;97374.75;4867197;29;20745;-77
2022/04/01 10:03:07;;;;;;;5.10;4.60;;;;;;;6.28;100.00;97368.78;4878996;29;20239;-77
2022/04/01 10:05:36;;;;;;;5.30;4.90;;;;;;;6.18;100.00;97364.13;4879815;29;20238;-77
2022/04/01 10:08:05;;;;;;;5.23;4.77;;;;;;;6.12;100.00;97367.75;4877407;29;20251;-77
2022/04/01 10:10:31;;;;;;;4.97;4.60;;;;;;;5.96;100.00;97368.63;4871010;29;20250;-77
2022/04/01 10:13:24;;;;;;;5.30;4.83;;;;;;;5.97;100.00;97370.22;4880271;29;20326;-77
2022/04/01 10:15:53;;;;;;;5.30;4.80;;;;;;;5.96;100.00;97373.94;4880072;29;20238;-77
2022/04/01 10:18:41;;;;;;;5.27;4.57;;;;;;;5.96;100.00;97373.94;4879596;29;20330;-77
2022/04/01 10:21:09;;;;;;;4.57;4.17;;;;;;;6.00;100.00;97375.84;4879901;29;20616;-77
2022/04/01 10:23:38;;;;;;;11.50;4.67;;;;;;;6.16;100.00;97374.19;4879412;29;20236;-76
2022/04/01 10:26:09;;;;;;;5.47;4.77;;;;;;;6.31;100.00;97376.25;4870399;29;20272;-76
2022/04/01 10:28:35;;;;;;;4.63;4.23;;;;;;;6.57;100.00;97381.66;4886065;29;20286;-77
2022/04/01 10:31:03;;;;;;;4.80;4.30;;;;;;;6.81;100.00;97376.06;4879581;29;20318;-77
2022/04/01 10:33:35;;;;;;;5.77;4.23;;;;;;;7.06;100.00;97377.13;4879735;29;20247;-77
2022/04/01 10:36:22;;;;;;;4.90;4.50;;;;;;;7.15;100.00;97374.00;4873716;29;20322;-76
2022/04/01 10:38:59;;;;;;;4.97;4.50;;;;;;;7.09;100.00;97376.59;4873785;29;20658;-76
2022/04/01 10:41:26;;;;;;;4.80;4.13;;;;;;;7.04;100.00;97379.25;4881909;29;20235;-77
2022/04/01 10:43:57;;;;;;;4.47;4.07;;;;;;;6.93;100.00;97385.50;4876363;29;20246;-77
2022/04/01 10:46:24;;;;;;;4.60;4.20;;;;;;;7.19;100.00;97388.41;4878398;29;20247;-76
2022/04/01 10:52:01;;;;;;;4.50;4.10;;;;;;;7.26;100.00;97389.84;4878808;29;20231;-77
2022/04/01 10:54:27;;;;;;;4.83;4.40;;;;;;;7.12;100.00;97396.63;4884605;29;20302;-77
2022/04/01 10:56:55;;;;;;;4.67;4.27;;;;;;;7.26;100.00;97392.50;4879490;29;20243;-77
2022/04/01 10:59:24;;;;;;;4.73;4.23;;;;;;;7.58;100.00;97394.34;4876564;29;20274;-77
2022/04/01 11:01:54;;;;;;;4.90;4.40;;;;;;;7.34;100.00;97394.69;4876861;29;20766;-76
2022/04/01 11:04:28;;;;;;;4.77;4.33;;;;;;;7.14;100.00;97399.03;4881951;29;20317;-77
2022/04/01 11:07:03;;;;;;;5.13;4.73;;;;;;;7.03;100.00;97398.13;4874652;29;20239;-76
2022/04/01 11:10:00;;;;;;;5.20;4.80;;;;;;;6.86;100.00;97416.06;4871543;29;20235;-76
2022/04/01 11:12:38;;;;;;;5.00;4.60;;;;;;;6.70;100.00;97406.28;4878822;29;20231;-77
2022/04/01 11:15:11;;;;;;;5.10;4.70;;;;;;;6.64;100.00;97408.88;4883988;29;20247;-77
2022/04/01 11:17:44;;;;;;;4.90;4.50;;;;;;;6.39;100.00;97399.78;4879087;29;20258;-77
2022/04/01 11:20:21;;;;;;;4.97;4.57;;;;;;;6.19;100.00;97403.78;4873000;29;20241;-77
2022/04/01 11:22:59;;;;;;;5.13;4.67;;;;;;;6.43;100.00;97412.34;4873791;29;20239;-77
2022/04/01 11:25:32;;;;;;;4.87;4.47;;;;;;;6.44;100.00;97407.81;4878739;29;20235;-77
2022/04/01 11:28:05;;;;;;;5.03;4.57;;;;;;;6.43;100.00;97401.69;4878914;29;20243;-77
2022/04/01 11:30:34;;;;;;;4.97;4.57;;;;;;;6.52;100.00;97400.22;4883462;29;20283;-76
2022/04/01 11:33:10;;;;;;;5.10;4.60;;;;;;;6.62;100.00;97410.19;4874845;29;20731;-77
2022/04/01 11:35:39;;;;;;;4.70;4.30;;;;;;;6.83;100.00;97409.34;4878751;29;20951;-77
2022/04/01 11:38:07;;;;;;;4.57;4.17;;;;;;;6.92;100.00;97418.50;4869280;29;20228;-76
2022/04/01 11:40:37;;;;;;;4.90;4.50;;;;;;;6.78;100.00;97419.94;4878211;29;20259;-77
2022/04/01 11:43:07;;;;;;;4.80;4.40;;;;;;;6.63;100.00;97427.72;4875554;29;20251;-77
2022/04/01 11:45:37;;;;;;;5.03;4.60;;;;;;;6.61;100.00;97419.22;4875699;29;20329;-76
2022/04/01 11:48:32;;;;;;;5.37;4.87;;;;;;;6.76;100.00;97413.28;4872637;29;20650;-76
2022/04/01 11:51:10;;;;;;;4.90;4.50;;;;;;;6.90;100.00;97411.84;4866111;29;20266;-77
2022/04/01 11:53:39;;;;;;;5.43;4.93;;;;;;;7.16;100.00;97420.88;4875269;29;20283;-76